sensor_id;sensor_type;location;lat;lon;timestamp;P1;durP1;ratioP1;P2;durP2;ratioP2
21569;SDS011;57598;50.888;4.746;2022-10-30T00:02:10;43.25;;;40.45;;
21569;SDS011;57598;50.888;4.746;2022-10-30T00:04:39;43.28;;;40.45;;
21569;SDS011;57598;50.888;4.746;2022-10-30T00:07:05;43.50;;;40.60;;
21569;SDS011;57598;50.888;4.746;2022-10-30T00:09:32;43.30;;;40.50;;
21569;SDS011;57598;50.888;4.746;2022-10-30T00:12:00;43.83;;;41.03;;
21569;SDS011;57598;50.888;4.746;2022-10-30T00:14:27;42.22;;;39.53;;
21569;SDS011;57598;50.888;4.746;2022-10-30T00:16:54;42.55;;;39.75;;
21569;SDS011;57598;50.888;4.746;2022-10-30T00:19:21;43.58;;;40.67;;
21569;SDS011;57598;50.888;4.746;2022-10-30T00:21:49;43.45;;;40.55;;
21569;SDS011;57598;50.888;4.746;2022-10-30T00:24:16;43.55;;;40.65;;
21569;SDS011;57598;50.888;4.746;2022-10-30T00:26:43;43.55;;;40.65;;
21569;SDS011;57598;50.888;4.746;2022-10-30T00:29:10;43.80;;;40.90;;
21569;SDS011;57598;50.888;4.746;2022-10-30T00:31:37;43.53;;;40.63;;
21569;SDS011;57598;50.888;4.746;2022-10-30T00:34:04;44.28;;;41.38;;
21569;SDS011;57598;50.888;4.746;2022-10-30T00:36:31;43.95;;;41.05;;
21569;SDS011;57598;50.888;4.746;2022-10-30T00:38:59;46.08;;;43.08;;
21569;SDS011;57598;50.888;4.746;2022-10-30T00:41:26;44.30;;;41.40;;
21569;SDS011;57598;50.888;4.746;2022-10-30T00:43:53;44.00;;;41.10;;
21569;SDS011;57598;50.888;4.746;2022-10-30T00:46:25;44.13;;;41.22;;
21569;SDS011;57598;50.888;4.746;2022-10-30T00:48:57;44.30;;;41.40;;
21569;SDS011;57598;50.888;4.746;2022-10-30T00:51:29;44.85;;;41.85;;
21569;SDS011;57598;50.888;4.746;2022-10-30T00:54:00;44.20;;;41.30;;
21569;SDS011;57598;50.888;4.746;2022-10-30T00:56:28;44.33;;;41.42;;
21569;SDS011;57598;50.888;4.746;2022-10-30T00:58:57;44.08;;;41.08;;
21569;SDS011;57598;50.888;4.746;2022-10-30T01:01:28;44.70;;;41.70;;
21569;SDS011;57598;50.888;4.746;2022-10-30T01:03:59;45.50;;;42.40;;
21569;SDS011;57598;50.888;4.746;2022-10-30T01:06:27;45.35;;;42.25;;
21569;SDS011;57598;50.888;4.746;2022-10-30T01:08:57;44.60;;;41.50;;
21569;SDS011;57598;50.888;4.746;2022-10-30T01:11:26;44.58;;;41.47;;
21569;SDS011;57598;50.888;4.746;2022-10-30T01:13:53;46.92;;;43.15;;
21569;SDS011;57598;50.888;4.746;2022-10-30T01:19:17;44.65;;;41.55;;
21569;SDS011;57598;50.888;4.746;2022-10-30T01:21:53;44.97;;;41.88;;
21569;SDS011;57598;50.888;4.746;2022-10-30T01:24:34;45.05;;;41.85;;
21569;SDS011;57598;50.888;4.746;2022-10-30T01:27:17;44.63;;;41.42;;
21569;SDS011;57598;50.888;4.746;2022-10-30T01:29:54;45.63;;;42.42;;
21569;SDS011;57598;50.888;4.746;2022-10-30T01:32:35;45.78;;;42.58;;
21569;SDS011;57598;50.888;4.746;2022-10-30T01:35:13;45.58;;;42.38;;
21569;SDS011;57598;50.888;4.746;2022-10-30T01:37:47;47.13;;;43.80;;
21569;SDS011;57598;50.888;4.746;2022-10-30T01:40:19;46.38;;;43.17;;
21569;SDS011;57598;50.888;4.746;2022-10-30T01:42:48;46.53;;;43.33;;
21569;SDS011;57598;50.888;4.746;2022-10-30T01:45:19;45.92;;;42.72;;
21569;SDS011;57598;50.888;4.746;2022-10-30T01:48:02;45.75;;;42.60;;
21569;SDS011;57598;50.888;4.746;2022-10-30T01:50:43;45.28;;;42.17;;
21569;SDS011;57598;50.888;4.746;2022-10-30T01:53:21;45.83;;;42.63;;
21569;SDS011;57598;50.888;4.746;2022-10-30T01:55:56;47.15;;;43.85;;
21569;SDS011;57598;50.888;4.746;2022-10-30T01:58:38;45.80;;;42.60;;
21569;SDS011;57598;50.888;4.746;2022-10-30T02:01:10;46.28;;;42.97;;
21569;SDS011;57598;50.888;4.746;2022-10-30T02:03:38;46.30;;;43.00;;
21569;SDS011;57598;50.888;4.746;2022-10-30T02:06:05;45.00;;;41.80;;
21569;SDS011;57598;50.888;4.746;2022-10-30T02:08:32;44.67;;;41.50;;
21569;SDS011;57598;50.888;4.746;2022-10-30T02:10:59;44.97;;;41.78;;
21569;SDS011;57598;50.888;4.746;2022-10-30T02:13:26;45.45;;;42.25;;
21569;SDS011;57598;50.888;4.746;2022-10-30T02:15:55;45.20;;;42.00;;
21569;SDS011;57598;50.888;4.746;2022-10-30T02:18:23;45.78;;;42.58;;
21569;SDS011;57598;50.888;4.746;2022-10-30T02:20:52;45.95;;;42.75;;
21569;SDS011;57598;50.888;4.746;2022-10-30T02:23:19;45.50;;;42.30;;
21569;SDS011;57598;50.888;4.746;2022-10-30T02:25:46;45.60;;;42.40;;
21569;SDS011;57598;50.888;4.746;2022-10-30T02:28:13;47.33;;;43.97;;
21569;SDS011;57598;50.888;4.746;2022-10-30T02:30:40;46.88;;;43.47;;
21569;SDS011;57598;50.888;4.746;2022-10-30T02:33:09;45.92;;;42.63;;
21569;SDS011;57598;50.888;4.746;2022-10-30T02:35:36;45.75;;;42.45;;
21569;SDS011;57598;50.888;4.746;2022-10-30T02:38:04;47.13;;;43.83;;
21569;SDS011;57598;50.888;4.746;2022-10-30T02:40:31;46.58;;;43.17;;
21569;SDS011;57598;50.888;4.746;2022-10-30T02:42:58;46.50;;;43.10;;
21569;SDS011;57598;50.888;4.746;2022-10-30T02:45:25;46.17;;;42.78;;
21569;SDS011;57598;50.888;4.746;2022-10-30T02:47:52;46.38;;;43.00;;
21569;SDS011;57598;50.888;4.746;2022-10-30T02:50:19;46.13;;;42.83;;
21569;SDS011;57598;50.888;4.746;2022-10-30T02:52:46;46.25;;;42.95;;
21569;SDS011;57598;50.888;4.746;2022-10-30T02:55:14;45.60;;;42.30;;
21569;SDS011;57598;50.888;4.746;2022-10-30T02:57:41;45.10;;;41.90;;
21569;SDS011;57598;50.888;4.746;2022-10-30T03:00:09;46.53;;;43.13;;
21569;SDS011;57598;50.888;4.746;2022-10-30T03:02:36;47.00;;;43.60;;
21569;SDS011;57598;50.888;4.746;2022-10-30T03:05:04;45.80;;;42.50;;
21569;SDS011;57598;50.888;4.746;2022-10-30T03:07:31;46.17;;;42.78;;
21569;SDS011;57598;50.888;4.746;2022-10-30T03:09:58;46.08;;;42.78;;
21569;SDS011;57598;50.888;4.746;2022-10-30T03:12:27;45.53;;;42.22;;
21569;SDS011;57598;50.888;4.746;2022-10-30T03:14:54;45.40;;;42.10;;
21569;SDS011;57598;50.888;4.746;2022-10-30T03:17:21;45.55;;;42.25;;
21569;SDS011;57598;50.888;4.746;2022-10-30T03:19:48;45.92;;;42.63;;
21569;SDS011;57598;50.888;4.746;2022-10-30T03:22:15;46.65;;;43.25;;
21569;SDS011;57598;50.888;4.746;2022-10-30T03:24:42;46.28;;;42.88;;
21569;SDS011;57598;50.888;4.746;2022-10-30T03:27:09;45.97;;;42.67;;
21569;SDS011;57598;50.888;4.746;2022-10-30T03:29:37;46.40;;;43.00;;
21569;SDS011;57598;50.888;4.746;2022-10-30T03:32:07;46.22;;;42.83;;
21569;SDS011;57598;50.888;4.746;2022-10-30T03:34:34;46.55;;;43.15;;
21569;SDS011;57598;50.888;4.746;2022-10-30T03:37:02;47.40;;;44.00;;
21569;SDS011;57598;50.888;4.746;2022-10-30T03:39:29;45.63;;;42.33;;
21569;SDS011;57598;50.888;4.746;2022-10-30T03:41:56;45.90;;;42.60;;
21569;SDS011;57598;50.888;4.746;2022-10-30T03:44:23;46.42;;;43.03;;
21569;SDS011;57598;50.888;4.746;2022-10-30T03:46:51;45.38;;;42.08;;
21569;SDS011;57598;50.888;4.746;2022-10-30T03:49:18;45.30;;;42.00;;
21569;SDS011;57598;50.888;4.746;2022-10-30T03:51:45;45.58;;;42.25;;
21569;SDS011;57598;50.888;4.746;2022-10-30T03:54:12;46.20;;;42.80;;
21569;SDS011;57598;50.888;4.746;2022-10-30T03:56:39;45.97;;;42.58;;
21569;SDS011;57598;50.888;4.746;2022-10-30T03:59:06;46.15;;;42.75;;
21569;SDS011;57598;50.888;4.746;2022-10-30T04:01:33;45.50;;;42.00;;
21569;SDS011;57598;50.888;4.746;2022-10-30T04:04:01;47.50;;;43.90;;
21569;SDS011;57598;50.888;4.746;2022-10-30T04:06:28;46.15;;;42.65;;
21569;SDS011;57598;50.888;4.746;2022-10-30T04:08:55;46.10;;;42.60;;
21569;SDS011;57598;50.888;4.746;2022-10-30T04:11:22;45.95;;;42.45;;
21569;SDS011;57598;50.888;4.746;2022-10-30T04:13:49;45.88;;;42.38;;
21569;SDS011;57598;50.888;4.746;2022-10-30T04:16:16;47.15;;;43.55;;
21569;SDS011;57598;50.888;4.746;2022-10-30T04:18:43;45.75;;;42.15;;
21569;SDS011;57598;50.888;4.746;2022-10-30T04:21:11;47.30;;;43.70;;
21569;SDS011;57598;50.888;4.746;2022-10-30T04:23:38;45.33;;;41.83;;
21569;SDS011;57598;50.888;4.746;2022-10-30T04:26:05;45.95;;;42.45;;
21569;SDS011;57598;50.888;4.746;2022-10-30T04:28:32;46.42;;;42.92;;
21569;SDS011;57598;50.888;4.746;2022-10-30T04:30:59;45.35;;;41.85;;
21569;SDS011;57598;50.888;4.746;2022-10-30T04:33:26;48.15;;;44.22;;
21569;SDS011;57598;50.888;4.746;2022-10-30T04:35:53;46.00;;;42.50;;
21569;SDS011;57598;50.888;4.746;2022-10-30T04:38:22;45.28;;;41.78;;
21569;SDS011;57598;50.888;4.746;2022-10-30T04:40:49;45.75;;;42.15;;
21569;SDS011;57598;50.888;4.746;2022-10-30T04:43:16;46.28;;;42.67;;
21569;SDS011;57598;50.888;4.746;2022-10-30T04:45:43;46.33;;;42.72;;
21569;SDS011;57598;50.888;4.746;2022-10-30T04:48:11;47.47;;;43.78;;
21569;SDS011;57598;50.888;4.746;2022-10-30T04:50:39;46.60;;;43.00;;
21569;SDS011;57598;50.888;4.746;2022-10-30T04:53:06;46.80;;;43.15;;
21569;SDS011;57598;50.888;4.746;2022-10-30T04:55:38;47.20;;;43.53;;
21569;SDS011;57598;50.888;4.746;2022-10-30T04:58:05;47.35;;;43.65;;
21569;SDS011;57598;50.888;4.746;2022-10-30T05:00:33;47.05;;;43.38;;
21569;SDS011;57598;50.888;4.746;2022-10-30T05:03:00;46.15;;;42.55;;
21569;SDS011;57598;50.888;4.746;2022-10-30T05:05:28;47.70;;;43.95;;
21569;SDS011;57598;50.888;4.746;2022-10-30T05:07:55;46.80;;;43.15;;
21569;SDS011;57598;50.888;4.746;2022-10-30T05:10:22;45.45;;;41.85;;
21569;SDS011;57598;50.888;4.746;2022-10-30T05:12:51;45.60;;;42.08;;
21569;SDS011;57598;50.888;4.746;2022-10-30T05:15:18;46.30;;;42.70;;
21569;SDS011;57598;50.888;4.746;2022-10-30T05:17:49;45.92;;;42.33;;
21569;SDS011;57598;50.888;4.746;2022-10-30T05:20:17;47.25;;;43.65;;
21569;SDS011;57598;50.888;4.746;2022-10-30T05:22:44;45.22;;;41.83;;
21569;SDS011;57598;50.888;4.746;2022-10-30T05:25:11;46.47;;;42.97;;
21569;SDS011;57598;50.888;4.746;2022-10-30T05:27:40;45.83;;;42.33;;
21569;SDS011;57598;50.888;4.746;2022-10-30T05:30:08;46.88;;;43.28;;
21569;SDS011;57598;50.888;4.746;2022-10-30T05:32:36;45.78;;;42.28;;
21569;SDS011;57598;50.888;4.746;2022-10-30T05:35:03;45.83;;;42.33;;
21569;SDS011;57598;50.888;4.746;2022-10-30T05:37:30;45.35;;;41.75;;
21569;SDS011;57598;50.888;4.746;2022-10-30T05:39:57;46.67;;;42.97;;
21569;SDS011;57598;50.888;4.746;2022-10-30T05:42:24;45.88;;;42.28;;
21569;SDS011;57598;50.888;4.746;2022-10-30T05:44:51;46.97;;;43.28;;
21569;SDS011;57598;50.888;4.746;2022-10-30T05:47:19;46.88;;;43.17;;
21569;SDS011;57598;50.888;4.746;2022-10-30T05:49:46;46.70;;;43.00;;
21569;SDS011;57598;50.888;4.746;2022-10-30T05:52:13;45.90;;;42.30;;
21569;SDS011;57598;50.888;4.746;2022-10-30T05:54:40;45.78;;;42.17;;
21569;SDS011;57598;50.888;4.746;2022-10-30T05:57:07;46.15;;;42.55;;
21569;SDS011;57598;50.888;4.746;2022-10-30T05:59:34;45.92;;;42.22;;
21569;SDS011;57598;50.888;4.746;2022-10-30T06:02:01;46.60;;;42.90;;
21569;SDS011;57598;50.888;4.746;2022-10-30T06:04:30;45.90;;;42.30;;
21569;SDS011;57598;50.888;4.746;2022-10-30T06:06:57;46.33;;;42.72;;
21569;SDS011;57598;50.888;4.746;2022-10-30T06:09:24;45.67;;;42.08;;
21569;SDS011;57598;50.888;4.746;2022-10-30T06:11:51;46.13;;;42.53;;
21569;SDS011;57598;50.888;4.746;2022-10-30T06:14:18;47.90;;;44.20;;
21569;SDS011;57598;50.888;4.746;2022-10-30T06:16:45;45.88;;;42.28;;
21569;SDS011;57598;50.888;4.746;2022-10-30T06:19:12;45.70;;;42.10;;
21569;SDS011;57598;50.888;4.746;2022-10-30T06:21:41;44.25;;;40.75;;
21569;SDS011;57598;50.888;4.746;2022-10-30T06:24:08;48.10;;;44.30;;
21569;SDS011;57598;50.888;4.746;2022-10-30T06:26:35;44.00;;;40.50;;
21569;SDS011;57598;50.888;4.746;2022-10-30T06:29:02;46.67;;;43.08;;
21569;SDS011;57598;50.888;4.746;2022-10-30T06:31:29;44.33;;;40.83;;
21569;SDS011;57598;50.888;4.746;2022-10-30T06:33:56;45.42;;;41.83;;
21569;SDS011;57598;50.888;4.746;2022-10-30T06:36:23;45.47;;;41.97;;
21569;SDS011;57598;50.888;4.746;2022-10-30T06:38:51;44.28;;;40.88;;
21569;SDS011;57598;50.888;4.746;2022-10-30T06:41:18;43.92;;;40.53;;
21569;SDS011;57598;50.888;4.746;2022-10-30T06:43:45;43.63;;;40.33;;
21569;SDS011;57598;50.888;4.746;2022-10-30T06:46:12;42.53;;;39.33;;
21569;SDS011;57598;50.888;4.746;2022-10-30T06:48:42;43.72;;;40.53;;
21569;SDS011;57598;50.888;4.746;2022-10-30T06:51:09;43.13;;;39.92;;
21569;SDS011;57598;50.888;4.746;2022-10-30T06:53:39;42.58;;;39.47;;
21569;SDS011;57598;50.888;4.746;2022-10-30T06:56:08;42.28;;;39.17;;
21569;SDS011;57598;50.888;4.746;2022-10-30T06:58:35;42.40;;;39.22;;
21569;SDS011;57598;50.888;4.746;2022-10-30T07:01:04;42.47;;;39.38;;
21569;SDS011;57598;50.888;4.746;2022-10-30T07:03:31;42.95;;;39.75;;
21569;SDS011;57598;50.888;4.746;2022-10-30T07:05:59;42.63;;;39.53;;
21569;SDS011;57598;50.888;4.746;2022-10-30T07:08:26;41.72;;;38.72;;
21569;SDS011;57598;50.888;4.746;2022-10-30T07:10:55;42.75;;;39.75;;
21569;SDS011;57598;50.888;4.746;2022-10-30T07:13:24;44.63;;;39.78;;
21569;SDS011;57598;50.888;4.746;2022-10-30T07:15:51;41.92;;;39.00;;
21569;SDS011;57598;50.888;4.746;2022-10-30T07:18:18;42.58;;;39.58;;
21569;SDS011;57598;50.888;4.746;2022-10-30T07:20:45;41.75;;;38.78;;
21569;SDS011;57598;50.888;4.746;2022-10-30T07:23:12;41.47;;;38.58;;
21569;SDS011;57598;50.888;4.746;2022-10-30T07:25:39;42.53;;;39.63;;
21569;SDS011;57598;50.888;4.746;2022-10-30T07:28:06;41.58;;;38.67;;
21569;SDS011;57598;50.888;4.746;2022-10-30T07:30:34;41.47;;;38.67;;
21569;SDS011;57598;50.888;4.746;2022-10-30T07:33:02;40.83;;;38.03;;
21569;SDS011;57598;50.888;4.746;2022-10-30T07:35:30;40.83;;;38.03;;
21569;SDS011;57598;50.888;4.746;2022-10-30T07:38:01;41.28;;;38.55;;
21569;SDS011;57598;50.888;4.746;2022-10-30T07:40:29;41.00;;;38.25;;
21569;SDS011;57598;50.888;4.746;2022-10-30T07:42:56;41.17;;;38.47;;
21569;SDS011;57598;50.888;4.746;2022-10-30T07:45:23;40.97;;;38.35;;
21569;SDS011;57598;50.888;4.746;2022-10-30T07:47:52;41.00;;;38.30;;
21569;SDS011;57598;50.888;4.746;2022-10-30T07:50:19;39.95;;;37.35;;
21569;SDS011;57598;50.888;4.746;2022-10-30T07:52:48;39.70;;;37.20;;
21569;SDS011;57598;50.888;4.746;2022-10-30T07:55:15;39.92;;;37.42;;
21569;SDS011;57598;50.888;4.746;2022-10-30T07:57:42;40.33;;;37.78;;
21569;SDS011;57598;50.888;4.746;2022-10-30T08:00:11;39.63;;;37.17;;
21569;SDS011;57598;50.888;4.746;2022-10-30T08:02:40;39.28;;;36.88;;
21569;SDS011;57598;50.888;4.746;2022-10-30T08:05:09;38.85;;;36.55;;
21569;SDS011;57598;50.888;4.746;2022-10-30T08:07:36;36.10;;;34.00;;
21569;SDS011;57598;50.888;4.746;2022-10-30T08:10:04;35.60;;;33.50;;
21569;SDS011;57598;50.888;4.746;2022-10-30T08:12:33;38.80;;;36.50;;
21569;SDS011;57598;50.888;4.746;2022-10-30T08:15:02;35.15;;;33.15;;
21569;SDS011;57598;50.888;4.746;2022-10-30T08:17:30;34.47;;;32.58;;
21569;SDS011;57598;50.888;4.746;2022-10-30T08:19:57;32.63;;;30.83;;
21569;SDS011;57598;50.888;4.746;2022-10-30T08:22:25;31.10;;;29.40;;
21569;SDS011;57598;50.888;4.746;2022-10-30T08:24:52;29.38;;;27.77;;
21569;SDS011;57598;50.888;4.746;2022-10-30T08:27:19;29.13;;;27.52;;
21569;SDS011;57598;50.888;4.746;2022-10-30T08:29:50;28.27;;;26.77;;
21569;SDS011;57598;50.888;4.746;2022-10-30T08:32:17;25.58;;;24.17;;
21569;SDS011;57598;50.888;4.746;2022-10-30T08:34:44;26.70;;;25.30;;
21569;SDS011;57598;50.888;4.746;2022-10-30T08:37:14;27.25;;;25.75;;
21569;SDS011;57598;50.888;4.746;2022-10-30T08:39:42;27.52;;;26.02;;
21569;SDS011;57598;50.888;4.746;2022-10-30T08:42:09;26.10;;;24.70;;
21569;SDS011;57598;50.888;4.746;2022-10-30T08:44:36;27.58;;;25.88;;
21569;SDS011;57598;50.888;4.746;2022-10-30T08:47:03;24.77;;;23.40;;
21569;SDS011;57598;50.888;4.746;2022-10-30T08:49:30;24.55;;;23.20;;
21569;SDS011;57598;50.888;4.746;2022-10-30T08:51:57;25.42;;;24.02;;
21569;SDS011;57598;50.888;4.746;2022-10-30T08:54:24;24.65;;;23.35;;
21569;SDS011;57598;50.888;4.746;2022-10-30T08:56:52;24.70;;;23.40;;
21569;SDS011;57598;50.888;4.746;2022-10-30T08:59:19;24.92;;;23.55;;
21569;SDS011;57598;50.888;4.746;2022-10-30T09:01:46;24.25;;;22.95;;
21569;SDS011;57598;50.888;4.746;2022-10-30T09:04:15;25.20;;;23.80;;
21569;SDS011;57598;50.888;4.746;2022-10-30T09:06:42;24.27;;;22.98;;
21569;SDS011;57598;50.888;4.746;2022-10-30T09:09:08;23.80;;;22.50;;
21569;SDS011;57598;50.888;4.746;2022-10-30T09:11:36;25.80;;;24.40;;
21569;SDS011;57598;50.888;4.746;2022-10-30T09:14:04;24.48;;;23.17;;
21569;SDS011;57598;50.888;4.746;2022-10-30T09:16:31;26.02;;;24.60;;
21569;SDS011;57598;50.888;4.746;2022-10-30T09:18:58;25.50;;;24.00;;
21569;SDS011;57598;50.888;4.746;2022-10-30T09:21:25;24.58;;;23.20;;
21569;SDS011;57598;50.888;4.746;2022-10-30T09:23:55;22.45;;;20.45;;
21569;SDS011;57598;50.888;4.746;2022-10-30T09:26:21;21.67;;;20.40;;
21569;SDS011;57598;50.888;4.746;2022-10-30T09:28:48;20.67;;;19.48;;
21569;SDS011;57598;50.888;4.746;2022-10-30T09:31:17;20.48;;;19.27;;
21569;SDS011;57598;50.888;4.746;2022-10-30T09:33:44;18.90;;;17.80;;
21569;SDS011;57598;50.888;4.746;2022-10-30T09:36:11;20.80;;;19.65;;
21569;SDS011;57598;50.888;4.746;2022-10-30T09:38:38;21.15;;;19.95;;
21569;SDS011;57598;50.888;4.746;2022-10-30T09:41:09;19.42;;;18.33;;
21569;SDS011;57598;50.888;4.746;2022-10-30T09:43:49;20.30;;;19.10;;
21569;SDS011;57598;50.888;4.746;2022-10-30T09:46:29;21.20;;;19.75;;
21569;SDS011;57598;50.888;4.746;2022-10-30T09:49:13;19.77;;;18.67;;
21569;SDS011;57598;50.888;4.746;2022-10-30T09:51:55;20.48;;;19.27;;
21569;SDS011;57598;50.888;4.746;2022-10-30T09:54:35;22.88;;;21.13;;
21569;SDS011;57598;50.888;4.746;2022-10-30T09:57:13;18.85;;;17.75;;
21569;SDS011;57598;50.888;4.746;2022-10-30T09:59:50;21.38;;;19.63;;
21569;SDS011;57598;50.888;4.746;2022-10-30T10:02:31;19.90;;;18.80;;
21569;SDS011;57598;50.888;4.746;2022-10-30T10:05:03;19.33;;;17.98;;
21569;SDS011;57598;50.888;4.746;2022-10-30T10:07:37;21.83;;;20.50;;
21569;SDS011;57598;50.888;4.746;2022-10-30T10:10:10;22.48;;;20.27;;
21569;SDS011;57598;50.888;4.746;2022-10-30T10:12:42;19.23;;;18.13;;
21569;SDS011;57598;50.888;4.746;2022-10-30T10:15:13;19.73;;;18.50;;
21569;SDS011;57598;50.888;4.746;2022-10-30T10:17:48;20.70;;;19.40;;
21569;SDS011;57598;50.888;4.746;2022-10-30T10:20:16;19.02;;;17.92;;
21569;SDS011;57598;50.888;4.746;2022-10-30T10:22:52;20.17;;;18.98;;
21569;SDS011;57598;50.888;4.746;2022-10-30T10:25:22;20.60;;;19.40;;
21569;SDS011;57598;50.888;4.746;2022-10-30T10:27:52;18.98;;;17.88;;
21569;SDS011;57598;50.888;4.746;2022-10-30T10:30:28;18.90;;;17.73;;
21569;SDS011;57598;50.888;4.746;2022-10-30T10:33:10;19.40;;;18.30;;
21569;SDS011;57598;50.888;4.746;2022-10-30T10:36:01;19.20;;;18.10;;
21569;SDS011;57598;50.888;4.746;2022-10-30T10:38:38;19.50;;;18.40;;
21569;SDS011;57598;50.888;4.746;2022-10-30T10:41:17;19.63;;;18.52;;
21569;SDS011;57598;50.888;4.746;2022-10-30T10:43:58;20.08;;;18.98;;
21569;SDS011;57598;50.888;4.746;2022-10-30T10:49:32;20.02;;;18.92;;
21569;SDS011;57598;50.888;4.746;2022-10-30T10:52:09;19.85;;;18.75;;
21569;SDS011;57598;50.888;4.746;2022-10-30T10:57:11;20.15;;;19.05;;
21569;SDS011;57598;50.888;4.746;2022-10-30T10:59:43;19.75;;;18.65;;
21569;SDS011;57598;50.888;4.746;2022-10-30T11:05:01;21.23;;;19.92;;
21569;SDS011;57598;50.888;4.746;2022-10-30T11:07:34;23.42;;;21.92;;
21569;SDS011;57598;50.888;4.746;2022-10-30T11:10:10;21.60;;;20.30;;
21569;SDS011;57598;50.888;4.746;2022-10-30T11:12:38;19.55;;;18.45;;
21569;SDS011;57598;50.888;4.746;2022-10-30T11:15:08;19.58;;;18.48;;
21569;SDS011;57598;50.888;4.746;2022-10-30T11:18:04;19.63;;;18.52;;
21569;SDS011;57598;50.888;4.746;2022-10-30T11:20:37;20.38;;;19.27;;
21569;SDS011;57598;50.888;4.746;2022-10-30T11:25:58;23.98;;;22.67;;
21569;SDS011;57598;50.888;4.746;2022-10-30T11:31:18;19.52;;;18.42;;
21569;SDS011;57598;50.888;4.746;2022-10-30T11:33:46;20.23;;;19.13;;
21569;SDS011;57598;50.888;4.746;2022-10-30T11:36:15;19.73;;;18.63;;
21569;SDS011;57598;50.888;4.746;2022-10-30T11:38:44;20.77;;;19.58;;
21569;SDS011;57598;50.888;4.746;2022-10-30T11:41:11;19.95;;;18.85;;
21569;SDS011;57598;50.888;4.746;2022-10-30T11:43:39;20.50;;;19.38;;
21569;SDS011;57598;50.888;4.746;2022-10-30T11:46:08;20.30;;;19.20;;
21569;SDS011;57598;50.888;4.746;2022-10-30T11:48:42;20.25;;;19.15;;
21569;SDS011;57598;50.888;4.746;2022-10-30T11:51:10;22.10;;;20.15;;
21569;SDS011;57598;50.888;4.746;2022-10-30T11:53:40;23.77;;;22.40;;
21569;SDS011;57598;50.888;4.746;2022-10-30T11:56:13;20.80;;;19.60;;
21569;SDS011;57598;50.888;4.746;2022-10-30T11:58:42;20.70;;;19.52;;
21569;SDS011;57598;50.888;4.746;2022-10-30T12:01:13;20.30;;;19.20;;
21569;SDS011;57598;50.888;4.746;2022-10-30T12:03:46;19.60;;;18.50;;
21569;SDS011;57598;50.888;4.746;2022-10-30T12:06:17;32.00;;;20.85;;
21569;SDS011;57598;50.888;4.746;2022-10-30T12:09:00;21.10;;;19.90;;
21569;SDS011;57598;50.888;4.746;2022-10-30T12:11:29;20.75;;;19.55;;
21569;SDS011;57598;50.888;4.746;2022-10-30T12:13:57;20.25;;;19.15;;
21569;SDS011;57598;50.888;4.746;2022-10-30T12:16:25;21.58;;;20.27;;
21569;SDS011;57598;50.888;4.746;2022-10-30T12:18:58;25.65;;;24.15;;
21569;SDS011;57598;50.888;4.746;2022-10-30T12:21:28;20.27;;;19.17;;
21569;SDS011;57598;50.888;4.746;2022-10-30T12:23:56;19.75;;;18.65;;
21569;SDS011;57598;50.888;4.746;2022-10-30T12:26:32;25.13;;;23.38;;
21569;SDS011;57598;50.888;4.746;2022-10-30T12:29:01;20.13;;;19.02;;
21569;SDS011;57598;50.888;4.746;2022-10-30T12:31:33;20.10;;;19.00;;
21569;SDS011;57598;50.888;4.746;2022-10-30T12:34:13;19.95;;;18.85;;
21569;SDS011;57598;50.888;4.746;2022-10-30T12:36:52;20.02;;;18.90;;
21569;SDS011;57598;50.888;4.746;2022-10-30T12:39:24;20.67;;;19.48;;
21569;SDS011;57598;50.888;4.746;2022-10-30T12:41:58;19.90;;;18.80;;
21569;SDS011;57598;50.888;4.746;2022-10-30T12:44:29;20.23;;;19.13;;
21569;SDS011;57598;50.888;4.746;2022-10-30T12:47:01;20.25;;;19.15;;
21569;SDS011;57598;50.888;4.746;2022-10-30T12:49:34;20.02;;;18.92;;
21569;SDS011;57598;50.888;4.746;2022-10-30T12:52:07;20.48;;;19.33;;
21569;SDS011;57598;50.888;4.746;2022-10-30T12:54:40;20.15;;;19.05;;
21569;SDS011;57598;50.888;4.746;2022-10-30T12:57:16;20.65;;;19.48;;
21569;SDS011;57598;50.888;4.746;2022-10-30T12:59:49;20.38;;;19.27;;
21569;SDS011;57598;50.888;4.746;2022-10-30T13:02:27;20.00;;;18.90;;
21569;SDS011;57598;50.888;4.746;2022-10-30T13:05:04;19.58;;;18.48;;
21569;SDS011;57598;50.888;4.746;2022-10-30T13:07:43;20.90;;;19.70;;
21569;SDS011;57598;50.888;4.746;2022-10-30T13:10:19;20.00;;;18.90;;
21569;SDS011;57598;50.888;4.746;2022-10-30T13:12:54;19.92;;;18.83;;
21569;SDS011;57598;50.888;4.746;2022-10-30T13:15:28;20.48;;;19.27;;
21569;SDS011;57598;50.888;4.746;2022-10-30T13:17:58;20.00;;;18.83;;
21569;SDS011;57598;50.888;4.746;2022-10-30T13:20:32;21.55;;;20.35;;
21569;SDS011;57598;50.888;4.746;2022-10-30T13:23:01;20.67;;;19.48;;
21569;SDS011;57598;50.888;4.746;2022-10-30T13:28:03;21.50;;;20.25;;
21569;SDS011;57598;50.888;4.746;2022-10-30T13:30:37;21.02;;;19.83;;
21569;SDS011;57598;50.888;4.746;2022-10-30T13:33:07;21.38;;;20.13;;
21569;SDS011;57598;50.888;4.746;2022-10-30T13:35:41;25.95;;;24.23;;
21569;SDS011;57598;50.888;4.746;2022-10-30T13:38:23;20.13;;;19.02;;
21569;SDS011;57598;50.888;4.746;2022-10-30T13:41:03;20.92;;;19.75;;
21569;SDS011;57598;50.888;4.746;2022-10-30T13:43:43;21.08;;;19.77;;
21569;SDS011;57598;50.888;4.746;2022-10-30T13:46:22;20.15;;;19.05;;
21569;SDS011;57598;50.888;4.746;2022-10-30T13:49:02;20.38;;;19.27;;
21569;SDS011;57598;50.888;4.746;2022-10-30T13:51:43;19.88;;;18.50;;
21569;SDS011;57598;50.888;4.746;2022-10-30T13:54:16;22.25;;;20.45;;
21569;SDS011;57598;50.888;4.746;2022-10-30T13:59:27;21.30;;;19.90;;
21569;SDS011;57598;50.888;4.746;2022-10-30T14:02:11;21.38;;;20.17;;
21569;SDS011;57598;50.888;4.746;2022-10-30T14:04:49;21.27;;;20.08;;
21569;SDS011;57598;50.888;4.746;2022-10-30T14:07:22;21.63;;;20.33;;
21569;SDS011;57598;50.888;4.746;2022-10-30T14:09:57;22.27;;;20.98;;
21569;SDS011;57598;50.888;4.746;2022-10-30T14:12:43;21.38;;;20.17;;
21569;SDS011;57598;50.888;4.746;2022-10-30T14:15:25;21.25;;;20.05;;
21569;SDS011;57598;50.888;4.746;2022-10-30T14:20:50;21.27;;;20.08;;
21569;SDS011;57598;50.888;4.746;2022-10-30T14:23:21;21.02;;;19.83;;
21569;SDS011;57598;50.888;4.746;2022-10-30T14:28:40;20.98;;;19.77;;
21569;SDS011;57598;50.888;4.746;2022-10-30T14:31:11;21.10;;;19.65;;
21569;SDS011;57598;50.888;4.746;2022-10-30T14:33:41;19.83;;;18.63;;
21569;SDS011;57598;50.888;4.746;2022-10-30T14:36:11;19.53;;;18.43;;
21569;SDS011;57598;50.888;4.746;2022-10-30T14:38:40;20.10;;;19.00;;
21569;SDS011;57598;50.888;4.746;2022-10-30T14:41:21;20.85;;;19.65;;
21569;SDS011;57598;50.888;4.746;2022-10-30T14:44:16;20.85;;;19.65;;
21569;SDS011;57598;50.888;4.746;2022-10-30T14:47:00;20.05;;;18.95;;
21569;SDS011;57598;50.888;4.746;2022-10-30T14:49:44;20.65;;;19.45;;
21569;SDS011;57598;50.888;4.746;2022-10-30T14:52:14;20.35;;;19.17;;
21569;SDS011;57598;50.888;4.746;2022-10-30T14:54:48;20.58;;;19.25;;
21569;SDS011;57598;50.888;4.746;2022-10-30T14:57:20;20.30;;;19.10;;
21569;SDS011;57598;50.888;4.746;2022-10-30T14:59:47;20.58;;;19.38;;
21569;SDS011;57598;50.888;4.746;2022-10-30T15:02:47;19.40;;;18.30;;
21569;SDS011;57598;50.888;4.746;2022-10-30T15:05:29;20.20;;;19.10;;
21569;SDS011;57598;50.888;4.746;2022-10-30T15:08:09;20.05;;;18.95;;